createdAt,value
2018-04-25T00:04:50.022Z,100
2018-04-25T00:15:04.224Z,100
2018-04-25T00:25:18.458Z,100
2018-04-25T00:35:32.792Z,100
2018-04-25T00:45:47.308Z,100
2018-04-25T00:56:02.066Z,100
2018-04-25T01:06:16.727Z,100
2018-04-25T01:16:31.169Z,100
2018-04-25T01:26:46.125Z,100
2018-04-25T01:37:01.524Z,100
2018-04-25T01:47:16.687Z,100
2018-04-25T01:57:31.018Z,100
2018-04-25T02:07:45.181Z,100
2018-04-25T02:17:59.705Z,100
2018-04-25T02:28:15.221Z,100
2018-04-25T02:38:30.017Z,100
2018-04-25T02:48:44.079Z,100
2018-04-25T02:58:58.835Z,100
2018-04-25T03:09:13.774Z,100
2018-04-25T03:19:28.570Z,100
2018-04-25T03:29:43.426Z,100
2018-04-25T03:39:58.769Z,100
2018-04-25T03:50:14.164Z,100
2018-04-25T04:00:28.937Z,100
2018-04-25T04:10:44.150Z,100
2018-04-25T04:20:59.197Z,100
2018-04-25T04:31:13.371Z,100
2018-04-25T04:41:27.272Z,100
2018-04-25T04:51:42.911Z,100
2018-04-25T05:01:56.669Z,100
2018-04-25T05:12:10.509Z,100
2018-04-25T05:22:26.162Z,100
2018-04-25T05:32:40.090Z,100
2018-04-25T05:42:55.401Z,100
2018-04-25T05:53:10.879Z,92.7
2018-04-25T06:03:25.534Z,86.8
2018-04-25T06:13:40.342Z,85.1
2018-04-25T06:23:54.634Z,83.8
2018-04-25T06:34:10.298Z,88
2018-04-25T06:44:24.478Z,90.4
2018-04-25T06:54:38.429Z,97
2018-04-25T07:04:52.290Z,99.3
2018-04-25T07:15:06.727Z,100
2018-04-25T07:25:21.537Z,100
2018-04-25T07:35:35.866Z,100
2018-04-25T07:45:51.458Z,100
2018-04-25T07:56:06.720Z,100
